Gainesville, FL

Saat: 12:45 AM EDT Tarix: 29 B 2015 (GMT -0400)
The Duckpond | | Change Station
CLOSE
Current Station
Personal Weather Stations
Location: Gainesville, FL
Elevation: 124 ft
Nearby Weather Stations

Elev 124 ft 29.66 °N, 82.32 °W | Updated 2 seconds ago

A
A
79.3 ° F
Feels Like 83 ° F
N
0.0
K Də K from Cənub
Gusts 1.0 mph

Bug
High -- | Low -- ° F
--% Chance of Precip.
Yesterday
High -- | Low -- ° F
Precip. -- in
6:46 AM 8:24 PM
Waxing Gibbous, 93% visible
Təzyiq 29.96 in
G 10.0 mil
Buludlar A
Hərarət 83 ° F
74 ° F
Nəmin faizi 85%
Rainfall 0.00 in
Snow Depth Not available.
UV 0 out of 12
Pollen 4.20 out of 12
Air Quality Not available.
Flu Activity Not available.
METAR KGNV 290353Z AUTO 00000KT 10SM CLR 25/24 A2997 RMK AO2 SLP146 T02500239

More Conditions Fewer Conditions

Təzyiq 29.96 in
G 10.0 mil
Buludlar A
Hərarət 83 ° F
74 ° F
Nəmin faizi 85%
Rainfall 0.00 in
Snow Depth Not available.
UV 0 out of 12
Pollen 4.20 out of 12
Air Quality Not available.
Flu Activity Not available.
METAR KGNV 290353Z AUTO 00000KT 10SM CLR 25/24 A2997 RMK AO2 SLP146 T02500239

More Conditions Fewer Conditions

10-Day Weather Forecast

×

Almanac

Astronomy

Jul. 29, 2015 Rise Set
Actual Time
Civil Twilight
Nautical Twilight
Astronomical Twilight
Ay
Length Of Visible Light
Length of Day
Tomorrow will be .
, % of the Moon is Illuminated

Today's Extremes

State Highs State Lows

Community

WunderPhotos

Upload Photos

1,842,045 photos uploaded!

WunderBlogs® & News

Nearby

Air Quality

  Air Quality AQ Index Pollutant
Not available.

Snow Depth

Station Depth Elevation

Earthquake Activity

Distance Mag. Time & Date
Minimum magnitude displayed is 2.5.

Coastal Water Temperatures

Yer Hərarət

Stations

Nearby Weather Stations

Station Location Temp Əsinti Nəmin faizi K Precip. Elev Yeniləndi Type